sensor_id;sensor_type;location;lat;lon;timestamp;P1;durP1;ratioP1;P2;durP2;ratioP2
10410;SDS011;5251;52.112;8.606;2023-01-28T00:01:06;3.70;;;2.58;;
10410;SDS011;5251;52.112;8.606;2023-01-28T00:03:33;2.90;;;2.70;;
10410;SDS011;5251;52.112;8.606;2023-01-28T00:06:13;5.50;;;2.65;;
10410;SDS011;5251;52.112;8.606;2023-01-28T00:08:39;2.88;;;2.58;;
10410;SDS011;5251;52.112;8.606;2023-01-28T00:11:06;3.10;;;2.50;;
10410;SDS011;5251;52.112;8.606;2023-01-28T00:13:34;3.88;;;2.83;;
10410;SDS011;5251;52.112;8.606;2023-01-28T00:16:00;2.83;;;2.58;;
10410;SDS011;5251;52.112;8.606;2023-01-28T00:18:29;2.85;;;2.55;;
10410;SDS011;5251;52.112;8.606;2023-01-28T00:20:58;3.35;;;2.58;;
10410;SDS011;5251;52.112;8.606;2023-01-28T00:23:30;3.97;;;2.97;;
10410;SDS011;5251;52.112;8.606;2023-01-28T00:25:58;3.78;;;2.60;;
10410;SDS011;5251;52.112;8.606;2023-01-28T00:28:25;3.08;;;2.60;;
10410;SDS011;5251;52.112;8.606;2023-01-28T00:30:50;2.70;;;2.42;;
10410;SDS011;5251;52.112;8.606;2023-01-28T00:33:16;4.05;;;2.47;;
10410;SDS011;5251;52.112;8.606;2023-01-28T00:35:42;3.95;;;2.95;;
10410;SDS011;5251;52.112;8.606;2023-01-28T00:38:07;3.25;;;2.40;;
10410;SDS011;5251;52.112;8.606;2023-01-28T00:40:33;4.03;;;2.50;;
10410;SDS011;5251;52.112;8.606;2023-01-28T00:42:59;2.75;;;2.50;;
10410;SDS011;5251;52.112;8.606;2023-01-28T00:45:25;2.95;;;2.42;;
10410;SDS011;5251;52.112;8.606;2023-01-28T00:47:50;3.17;;;2.28;;
10410;SDS011;5251;52.112;8.606;2023-01-28T00:50:16;5.15;;;3.42;;
10410;SDS011;5251;52.112;8.606;2023-01-28T00:52:41;3.85;;;2.80;;
10410;SDS011;5251;52.112;8.606;2023-01-28T00:55:08;3.92;;;2.38;;
10410;SDS011;5251;52.112;8.606;2023-01-28T00:57:34;2.38;;;2.10;;
10410;SDS011;5251;52.112;8.606;2023-01-28T00:59:59;2.40;;;2.10;;
10410;SDS011;5251;52.112;8.606;2023-01-28T01:02:25;2.25;;;2.05;;
10410;SDS011;5251;52.112;8.606;2023-01-28T01:04:51;2.38;;;2.13;;
10410;SDS011;5251;52.112;8.606;2023-01-28T01:07:22;2.97;;;2.50;;
10410;SDS011;5251;52.112;8.606;2023-01-28T01:09:56;3.60;;;3.20;;
10410;SDS011;5251;52.112;8.606;2023-01-28T01:12:23;2.80;;;2.50;;
10410;SDS011;5251;52.112;8.606;2023-01-28T01:14:49;3.05;;;2.53;;
10410;SDS011;5251;52.112;8.606;2023-01-28T01:17:14;3.42;;;2.58;;
10410;SDS011;5251;52.112;8.606;2023-01-28T01:19:40;3.05;;;2.72;;
10410;SDS011;5251;52.112;8.606;2023-01-28T01:22:06;3.50;;;2.90;;
10410;SDS011;5251;52.112;8.606;2023-01-28T01:24:31;4.00;;;2.80;;
10410;SDS011;5251;52.112;8.606;2023-01-28T01:26:58;2.92;;;2.63;;
10410;SDS011;5251;52.112;8.606;2023-01-28T01:29:24;3.28;;;2.40;;
10410;SDS011;5251;52.112;8.606;2023-01-28T01:31:49;2.38;;;2.17;;
10410;SDS011;5251;52.112;8.606;2023-01-28T01:34:15;2.67;;;2.45;;
10410;SDS011;5251;52.112;8.606;2023-01-28T01:36:40;2.95;;;2.67;;
10410;SDS011;5251;52.112;8.606;2023-01-28T01:39:09;2.72;;;2.50;;
10410;SDS011;5251;52.112;8.606;2023-01-28T01:41:36;2.60;;;2.40;;
10410;SDS011;5251;52.112;8.606;2023-01-28T01:44:03;3.00;;;2.70;;
10410;SDS011;5251;52.112;8.606;2023-01-28T01:49:15;2.72;;;2.35;;
10410;SDS011;5251;52.112;8.606;2023-01-28T01:51:49;3.65;;;2.70;;
10410;SDS011;5251;52.112;8.606;2023-01-28T01:54:18;3.15;;;2.50;;
10410;SDS011;5251;52.112;8.606;2023-01-28T01:56:47;2.63;;;2.42;;
10410;SDS011;5251;52.112;8.606;2023-01-28T01:59:16;3.13;;;2.70;;
10410;SDS011;5251;52.112;8.606;2023-01-28T02:01:45;3.15;;;2.22;;
10410;SDS011;5251;52.112;8.606;2023-01-28T02:04:18;3.22;;;2.40;;
10410;SDS011;5251;52.112;8.606;2023-01-28T02:06:46;2.65;;;2.40;;
10410;SDS011;5251;52.112;8.606;2023-01-28T02:09:22;2.30;;;2.10;;
10410;SDS011;5251;52.112;8.606;2023-01-28T02:11:50;4.28;;;2.60;;
10410;SDS011;5251;52.112;8.606;2023-01-28T02:14:22;2.72;;;2.03;;
10410;SDS011;5251;52.112;8.606;2023-01-28T02:16:51;2.95;;;2.28;;
10410;SDS011;5251;52.112;8.606;2023-01-28T02:19:16;3.65;;;2.50;;
10410;SDS011;5251;52.112;8.606;2023-01-28T02:30:15;2.38;;;2.20;;
10410;SDS011;5251;52.112;8.606;2023-01-28T02:32:52;2.80;;;2.50;;
10410;SDS011;5251;52.112;8.606;2023-01-28T02:35:29;2.90;;;2.55;;
10410;SDS011;5251;52.112;8.606;2023-01-28T02:38:03;4.32;;;2.58;;
10410;SDS011;5251;52.112;8.606;2023-01-28T02:40:45;3.08;;;2.78;;
10410;SDS011;5251;52.112;8.606;2023-01-28T02:43:29;3.22;;;2.50;;
10410;SDS011;5251;52.112;8.606;2023-01-28T02:45:59;3.60;;;2.50;;
10410;SDS011;5251;52.112;8.606;2023-01-28T02:48:52;3.00;;;2.55;;
10410;SDS011;5251;52.112;8.606;2023-01-28T02:51:27;2.63;;;2.42;;
10410;SDS011;5251;52.112;8.606;2023-01-28T02:53:56;3.03;;;2.58;;
10410;SDS011;5251;52.112;8.606;2023-01-28T02:56:37;2.90;;;2.60;;
10410;SDS011;5251;52.112;8.606;2023-01-28T02:59:10;3.15;;;2.50;;
10410;SDS011;5251;52.112;8.606;2023-01-28T03:02:07;3.00;;;2.50;;
10410;SDS011;5251;52.112;8.606;2023-01-28T03:04:48;2.83;;;2.53;;
10410;SDS011;5251;52.112;8.606;2023-01-28T03:07:44;2.60;;;2.35;;
10410;SDS011;5251;52.112;8.606;2023-01-28T03:10:11;2.80;;;2.60;;
10410;SDS011;5251;52.112;8.606;2023-01-28T03:12:41;4.15;;;2.80;;
10410;SDS011;5251;52.112;8.606;2023-01-28T03:15:28;2.80;;;2.60;;
10410;SDS011;5251;52.112;8.606;2023-01-28T03:18:24;4.13;;;2.75;;
10410;SDS011;5251;52.112;8.606;2023-01-28T03:21:28;3.50;;;2.80;;
10410;SDS011;5251;52.112;8.606;2023-01-28T03:27:17;2.65;;;2.45;;
10410;SDS011;5251;52.112;8.606;2023-01-28T03:30:11;2.80;;;2.60;;
10410;SDS011;5251;52.112;8.606;2023-01-28T03:33:00;3.10;;;2.72;;
10410;SDS011;5251;52.112;8.606;2023-01-28T03:35:46;3.10;;;2.80;;
10410;SDS011;5251;52.112;8.606;2023-01-28T03:38:32;3.25;;;2.95;;
10410;SDS011;5251;52.112;8.606;2023-01-28T03:41:06;3.20;;;2.88;;
10410;SDS011;5251;52.112;8.606;2023-01-28T03:43:33;3.10;;;2.80;;
10410;SDS011;5251;52.112;8.606;2023-01-28T03:45:59;3.50;;;2.90;;
10410;SDS011;5251;52.112;8.606;2023-01-28T03:48:25;3.13;;;2.78;;
10410;SDS011;5251;52.112;8.606;2023-01-28T03:50:52;2.83;;;2.63;;
10410;SDS011;5251;52.112;8.606;2023-01-28T03:53:20;3.83;;;2.80;;
10410;SDS011;5251;52.112;8.606;2023-01-28T03:55:47;3.58;;;3.20;;
10410;SDS011;5251;52.112;8.606;2023-01-28T03:58:15;3.35;;;3.03;;
10410;SDS011;5251;52.112;8.606;2023-01-28T04:00:41;3.63;;;3.05;;
10410;SDS011;5251;52.112;8.606;2023-01-28T04:03:10;3.30;;;3.00;;
10410;SDS011;5251;52.112;8.606;2023-01-28T04:05:44;3.35;;;2.67;;
10410;SDS011;5251;52.112;8.606;2023-01-28T04:08:21;3.58;;;3.20;;
10410;SDS011;5251;52.112;8.606;2023-01-28T04:10:47;3.08;;;2.83;;
10410;SDS011;5251;52.112;8.606;2023-01-28T04:13:12;3.13;;;2.80;;
10410;SDS011;5251;52.112;8.606;2023-01-28T04:15:38;4.00;;;3.03;;
10410;SDS011;5251;52.112;8.606;2023-01-28T04:18:03;3.05;;;2.78;;
10410;SDS011;5251;52.112;8.606;2023-01-28T04:20:29;4.47;;;3.10;;
10410;SDS011;5251;52.112;8.606;2023-01-28T04:22:55;3.63;;;2.90;;
10410;SDS011;5251;52.112;8.606;2023-01-28T04:25:21;3.30;;;3.00;;
10410;SDS011;5251;52.112;8.606;2023-01-28T04:27:46;3.15;;;2.80;;
10410;SDS011;5251;52.112;8.606;2023-01-28T04:30:12;4.25;;;3.10;;
10410;SDS011;5251;52.112;8.606;2023-01-28T04:32:38;3.50;;;3.20;;
10410;SDS011;5251;52.112;8.606;2023-01-28T04:35:03;4.10;;;3.20;;
10410;SDS011;5251;52.112;8.606;2023-01-28T04:37:29;4.28;;;2.95;;
10410;SDS011;5251;52.112;8.606;2023-01-28T04:39:54;4.43;;;3.45;;
10410;SDS011;5251;52.112;8.606;2023-01-28T04:42:20;3.70;;;3.40;;
10410;SDS011;5251;52.112;8.606;2023-01-28T04:44:46;3.40;;;3.10;;
10410;SDS011;5251;52.112;8.606;2023-01-28T04:47:11;3.20;;;2.90;;
10410;SDS011;5251;52.112;8.606;2023-01-28T04:49:37;3.90;;;2.90;;
10410;SDS011;5251;52.112;8.606;2023-01-28T04:52:02;3.83;;;3.40;;
10410;SDS011;5251;52.112;8.606;2023-01-28T04:54:28;3.20;;;2.90;;
10410;SDS011;5251;52.112;8.606;2023-01-28T04:56:53;3.10;;;2.80;;
10410;SDS011;5251;52.112;8.606;2023-01-28T04:59:20;3.03;;;2.72;;
10410;SDS011;5251;52.112;8.606;2023-01-28T05:01:47;3.00;;;2.80;;
10410;SDS011;5251;52.112;8.606;2023-01-28T05:04:13;2.83;;;2.63;;
10410;SDS011;5251;52.112;8.606;2023-01-28T05:06:41;3.35;;;3.05;;
10410;SDS011;5251;52.112;8.606;2023-01-28T05:09:07;3.15;;;2.85;;
10410;SDS011;5251;52.112;8.606;2023-01-28T05:11:32;3.75;;;3.10;;
10410;SDS011;5251;52.112;8.606;2023-01-28T05:13:58;4.32;;;3.33;;
10410;SDS011;5251;52.112;8.606;2023-01-28T05:16:24;3.17;;;2.88;;
10410;SDS011;5251;52.112;8.606;2023-01-28T05:18:49;4.40;;;2.97;;
10410;SDS011;5251;52.112;8.606;2023-01-28T05:21:15;3.03;;;2.83;;
10410;SDS011;5251;52.112;8.606;2023-01-28T05:23:41;3.63;;;2.70;;
10410;SDS011;5251;52.112;8.606;2023-01-28T05:26:07;2.85;;;2.63;;
10410;SDS011;5251;52.112;8.606;2023-01-28T05:28:34;5.25;;;2.97;;
10410;SDS011;5251;52.112;8.606;2023-01-28T05:31:03;3.97;;;3.15;;
10410;SDS011;5251;52.112;8.606;2023-01-28T05:33:30;3.78;;;3.25;;
10410;SDS011;5251;52.112;8.606;2023-01-28T05:35:55;3.38;;;2.80;;
10410;SDS011;5251;52.112;8.606;2023-01-28T05:38:21;3.50;;;3.17;;
10410;SDS011;5251;52.112;8.606;2023-01-28T05:40:46;3.67;;;3.30;;
10410;SDS011;5251;52.112;8.606;2023-01-28T05:43:12;4.28;;;3.30;;
10410;SDS011;5251;52.112;8.606;2023-01-28T05:45:38;3.67;;;3.20;;
10410;SDS011;5251;52.112;8.606;2023-01-28T05:48:04;3.50;;;3.20;;
10410;SDS011;5251;52.112;8.606;2023-01-28T05:50:30;3.45;;;2.80;;
10410;SDS011;5251;52.112;8.606;2023-01-28T05:52:55;3.28;;;2.78;;
10410;SDS011;5251;52.112;8.606;2023-01-28T05:55:21;2.88;;;2.67;;
10410;SDS011;5251;52.112;8.606;2023-01-28T05:57:47;3.10;;;2.60;;
10410;SDS011;5251;52.112;8.606;2023-01-28T06:00:13;3.83;;;2.85;;
10410;SDS011;5251;52.112;8.606;2023-01-28T06:02:40;3.88;;;2.90;;
10410;SDS011;5251;52.112;8.606;2023-01-28T06:05:06;3.40;;;3.10;;
10410;SDS011;5251;52.112;8.606;2023-01-28T06:07:32;3.55;;;3.25;;
10410;SDS011;5251;52.112;8.606;2023-01-28T06:09:58;3.78;;;3.05;;
10410;SDS011;5251;52.112;8.606;2023-01-28T06:12:23;4.60;;;3.60;;
10410;SDS011;5251;52.112;8.606;2023-01-28T06:14:49;4.93;;;4.43;;
10410;SDS011;5251;52.112;8.606;2023-01-28T06:17:14;4.95;;;4.45;;
10410;SDS011;5251;52.112;8.606;2023-01-28T06:19:40;4.40;;;4.00;;
10410;SDS011;5251;52.112;8.606;2023-01-28T06:22:06;5.00;;;3.85;;
10410;SDS011;5251;52.112;8.606;2023-01-28T06:24:31;5.05;;;3.33;;
10410;SDS011;5251;52.112;8.606;2023-01-28T06:26:57;3.65;;;3.35;;
10410;SDS011;5251;52.112;8.606;2023-01-28T06:29:22;3.83;;;3.20;;
10410;SDS011;5251;52.112;8.606;2023-01-28T06:31:48;3.40;;;3.10;;
10410;SDS011;5251;52.112;8.606;2023-01-28T06:34:15;3.60;;;3.30;;
10410;SDS011;5251;52.112;8.606;2023-01-28T06:36:40;5.40;;;3.20;;
10410;SDS011;5251;52.112;8.606;2023-01-28T06:39:06;3.72;;;3.08;;
10410;SDS011;5251;52.112;8.606;2023-01-28T06:41:32;5.57;;;3.08;;
10410;SDS011;5251;52.112;8.606;2023-01-28T06:43:58;3.78;;;3.38;;
10410;SDS011;5251;52.112;8.606;2023-01-28T06:46:23;3.70;;;3.38;;
10410;SDS011;5251;52.112;8.606;2023-01-28T06:48:49;6.60;;;4.85;;
10410;SDS011;5251;52.112;8.606;2023-01-28T06:51:15;6.03;;;4.80;;
10410;SDS011;5251;52.112;8.606;2023-01-28T06:53:40;4.70;;;3.60;;
10410;SDS011;5251;52.112;8.606;2023-01-28T06:56:06;3.30;;;3.00;;
10410;SDS011;5251;52.112;8.606;2023-01-28T06:58:32;5.53;;;4.03;;
10410;SDS011;5251;52.112;8.606;2023-01-28T07:00:58;4.15;;;3.40;;
10410;SDS011;5251;52.112;8.606;2023-01-28T07:03:24;7.38;;;3.90;;
10410;SDS011;5251;52.112;8.606;2023-01-28T07:05:50;15.32;;;10.38;;
10410;SDS011;5251;52.112;8.606;2023-01-28T07:08:16;4.97;;;4.43;;
10410;SDS011;5251;52.112;8.606;2023-01-28T07:10:42;3.80;;;3.15;;
10410;SDS011;5251;52.112;8.606;2023-01-28T07:13:08;3.17;;;2.72;;
10410;SDS011;5251;52.112;8.606;2023-01-28T07:15:33;3.85;;;2.72;;
10410;SDS011;5251;52.112;8.606;2023-01-28T07:17:59;3.22;;;2.80;;
10410;SDS011;5251;52.112;8.606;2023-01-28T07:20:25;3.65;;;2.72;;
10410;SDS011;5251;52.112;8.606;2023-01-28T07:22:50;3.15;;;2.95;;
10410;SDS011;5251;52.112;8.606;2023-01-28T07:25:16;4.13;;;2.90;;
10410;SDS011;5251;52.112;8.606;2023-01-28T07:27:51;3.47;;;3.17;;
10410;SDS011;5251;52.112;8.606;2023-01-28T07:30:18;3.38;;;3.05;;
10410;SDS011;5251;52.112;8.606;2023-01-28T07:32:44;3.47;;;3.17;;
10410;SDS011;5251;52.112;8.606;2023-01-28T07:35:11;3.25;;;3.05;;
10410;SDS011;5251;52.112;8.606;2023-01-28T07:37:38;3.53;;;3.22;;
10410;SDS011;5251;52.112;8.606;2023-01-28T07:40:04;6.07;;;4.20;;
10410;SDS011;5251;52.112;8.606;2023-01-28T07:42:30;3.75;;;3.40;;
10410;SDS011;5251;52.112;8.606;2023-01-28T07:44:55;4.30;;;3.90;;
10410;SDS011;5251;52.112;8.606;2023-01-28T07:47:21;4.13;;;3.72;;
10410;SDS011;5251;52.112;8.606;2023-01-28T07:49:47;3.53;;;3.22;;
10410;SDS011;5251;52.112;8.606;2023-01-28T07:52:12;3.30;;;3.00;;
10410;SDS011;5251;52.112;8.606;2023-01-28T07:54:39;3.65;;;3.35;;
10410;SDS011;5251;52.112;8.606;2023-01-28T07:57:07;3.90;;;3.50;;
10410;SDS011;5251;52.112;8.606;2023-01-28T07:59:34;7.38;;;5.10;;
10410;SDS011;5251;52.112;8.606;2023-01-28T08:01:59;5.38;;;4.30;;
10410;SDS011;5251;52.112;8.606;2023-01-28T08:04:25;7.13;;;4.43;;
10410;SDS011;5251;52.112;8.606;2023-01-28T08:06:51;4.20;;;3.80;;
10410;SDS011;5251;52.112;8.606;2023-01-28T08:09:16;3.42;;;3.13;;
10410;SDS011;5251;52.112;8.606;2023-01-28T08:11:42;3.75;;;3.40;;
10410;SDS011;5251;52.112;8.606;2023-01-28T08:14:08;4.57;;;3.50;;
10410;SDS011;5251;52.112;8.606;2023-01-28T08:16:35;6.32;;;3.20;;
10410;SDS011;5251;52.112;8.606;2023-01-28T08:19:00;4.78;;;3.58;;
10410;SDS011;5251;52.112;8.606;2023-01-28T08:21:26;3.50;;;3.20;;
10410;SDS011;5251;52.112;8.606;2023-01-28T08:23:52;3.47;;;3.03;;
10410;SDS011;5251;52.112;8.606;2023-01-28T08:26:18;3.50;;;3.20;;
10410;SDS011;5251;52.112;8.606;2023-01-28T08:28:44;3.40;;;3.08;;
10410;SDS011;5251;52.112;8.606;2023-01-28T08:31:10;3.40;;;3.10;;
10410;SDS011;5251;52.112;8.606;2023-01-28T08:33:35;3.05;;;2.72;;
10410;SDS011;5251;52.112;8.606;2023-01-28T08:36:01;3.55;;;2.97;;
10410;SDS011;5251;52.112;8.606;2023-01-28T08:38:28;3.63;;;3.33;;
10410;SDS011;5251;52.112;8.606;2023-01-28T08:40:54;4.00;;;3.15;;
10410;SDS011;5251;52.112;8.606;2023-01-28T08:43:20;2.97;;;2.78;;
10410;SDS011;5251;52.112;8.606;2023-01-28T08:45:46;3.25;;;2.85;;
10410;SDS011;5251;52.112;8.606;2023-01-28T08:48:14;4.07;;;3.53;;
10410;SDS011;5251;52.112;8.606;2023-01-28T08:50:41;4.00;;;3.60;;
10410;SDS011;5251;52.112;8.606;2023-01-28T08:53:09;3.50;;;3.20;;
10410;SDS011;5251;52.112;8.606;2023-01-28T08:55:36;3.97;;;3.40;;
10410;SDS011;5251;52.112;8.606;2023-01-28T08:58:03;5.22;;;3.72;;
10410;SDS011;5251;52.112;8.606;2023-01-28T09:00:30;3.50;;;3.20;;
10410;SDS011;5251;52.112;8.606;2023-01-28T09:02:55;4.10;;;3.70;;
10410;SDS011;5251;52.112;8.606;2023-01-28T09:05:21;3.70;;;3.40;;
10410;SDS011;5251;52.112;8.606;2023-01-28T09:07:47;4.10;;;3.70;;
10410;SDS011;5251;52.112;8.606;2023-01-28T09:10:13;3.88;;;3.50;;
10410;SDS011;5251;52.112;8.606;2023-01-28T09:12:40;3.90;;;3.60;;
10410;SDS011;5251;52.112;8.606;2023-01-28T09:15:06;5.40;;;3.45;;
10410;SDS011;5251;52.112;8.606;2023-01-28T09:17:33;4.82;;;3.50;;
10410;SDS011;5251;52.112;8.606;2023-01-28T09:19:58;3.72;;;3.42;;
10410;SDS011;5251;52.112;8.606;2023-01-28T09:22:24;3.90;;;3.58;;
10410;SDS011;5251;52.112;8.606;2023-01-28T09:24:50;3.80;;;3.30;;
10410;SDS011;5251;52.112;8.606;2023-01-28T09:27:15;4.65;;;3.65;;
10410;SDS011;5251;52.112;8.606;2023-01-28T09:29:41;5.07;;;3.90;;
10410;SDS011;5251;52.112;8.606;2023-01-28T09:32:07;4.70;;;4.20;;
10410;SDS011;5251;52.112;8.606;2023-01-28T09:34:33;5.32;;;4.13;;
10410;SDS011;5251;52.112;8.606;2023-01-28T09:36:59;4.53;;;4.13;;
10410;SDS011;5251;52.112;8.606;2023-01-28T09:39:24;4.50;;;4.10;;
10410;SDS011;5251;52.112;8.606;2023-01-28T09:47:19;4.68;;;4.28;;
10410;SDS011;5251;52.112;8.606;2023-01-28T09:49:50;4.70;;;4.20;;
10410;SDS011;5251;52.112;8.606;2023-01-28T09:52:18;4.57;;;4.10;;
10410;SDS011;5251;52.112;8.606;2023-01-28T09:54:48;4.90;;;4.40;;
10410;SDS011;5251;52.112;8.606;2023-01-28T10:00:13;4.82;;;4.15;;
10410;SDS011;5251;52.112;8.606;2023-01-28T10:05:56;4.68;;;4.22;;
10410;SDS011;5251;52.112;8.606;2023-01-28T10:11:19;4.80;;;4.28;;
10410;SDS011;5251;52.112;8.606;2023-01-28T10:16:39;4.72;;;4.22;;
10410;SDS011;5251;52.112;8.606;2023-01-28T10:19:06;4.40;;;3.70;;
10410;SDS011;5251;52.112;8.606;2023-01-28T10:21:45;4.47;;;3.90;;
10410;SDS011;5251;52.112;8.606;2023-01-28T10:24:19;4.80;;;4.28;;
10410;SDS011;5251;52.112;8.606;2023-01-28T10:26:52;4.68;;;4.05;;
10410;SDS011;5251;52.112;8.606;2023-01-28T10:29:18;4.40;;;4.00;;
10410;SDS011;5251;52.112;8.606;2023-01-28T10:34:48;5.97;;;4.50;;
10410;SDS011;5251;52.112;8.606;2023-01-28T10:37:16;4.50;;;4.10;;
10410;SDS011;5251;52.112;8.606;2023-01-28T10:39:42;7.60;;;4.32;;
10410;SDS011;5251;52.112;8.606;2023-01-28T10:42:15;4.93;;;4.25;;
10410;SDS011;5251;52.112;8.606;2023-01-28T10:44:46;4.70;;;3.92;;
10410;SDS011;5251;52.112;8.606;2023-01-28T10:47:15;4.28;;;3.88;;
10410;SDS011;5251;52.112;8.606;2023-01-28T10:49:52;3.97;;;3.45;;
10410;SDS011;5251;52.112;8.606;2023-01-28T10:52:23;3.97;;;3.67;;
10410;SDS011;5251;52.112;8.606;2023-01-28T10:54:59;3.85;;;3.42;;
10410;SDS011;5251;52.112;8.606;2023-01-28T10:57:26;5.78;;;4.47;;
10410;SDS011;5251;52.112;8.606;2023-01-28T10:59:52;3.85;;;3.53;;
10410;SDS011;5251;52.112;8.606;2023-01-28T11:02:31;5.15;;;4.60;;
10410;SDS011;5251;52.112;8.606;2023-01-28T11:05:02;3.92;;;3.63;;
10410;SDS011;5251;52.112;8.606;2023-01-28T11:07:40;6.15;;;3.78;;
10410;SDS011;5251;52.112;8.606;2023-01-28T11:12:56;4.10;;;3.80;;
10410;SDS011;5251;52.112;8.606;2023-01-28T11:15:23;4.20;;;3.80;;
10410;SDS011;5251;52.112;8.606;2023-01-28T11:17:59;3.83;;;3.53;;
10410;SDS011;5251;52.112;8.606;2023-01-28T11:20:27;4.70;;;4.30;;
10410;SDS011;5251;52.112;8.606;2023-01-28T11:22:55;4.57;;;4.18;;
10410;SDS011;5251;52.112;8.606;2023-01-28T11:25:31;4.38;;;3.97;;
10410;SDS011;5251;52.112;8.606;2023-01-28T11:27:59;4.30;;;4.00;;
10410;SDS011;5251;52.112;8.606;2023-01-28T11:30:31;4.43;;;4.03;;
10410;SDS011;5251;52.112;8.606;2023-01-28T11:33:13;4.95;;;4.55;;
10410;SDS011;5251;52.112;8.606;2023-01-28T11:35:55;4.93;;;4.15;;
10410;SDS011;5251;52.112;8.606;2023-01-28T11:38:31;6.22;;;4.75;;
10410;SDS011;5251;52.112;8.606;2023-01-28T11:40:58;4.90;;;4.40;;
10410;SDS011;5251;52.112;8.606;2023-01-28T11:43:26;5.05;;;4.55;;
10410;SDS011;5251;52.112;8.606;2023-01-28T11:46:00;5.07;;;4.20;;
10410;SDS011;5251;52.112;8.606;2023-01-28T11:49:08;4.55;;;4.15;;
10410;SDS011;5251;52.112;8.606;2023-01-28T11:51:38;5.03;;;4.50;;
10410;SDS011;5251;52.112;8.606;2023-01-28T12:00:03;8.25;;;4.82;;
10410;SDS011;5251;52.112;8.606;2023-01-28T12:06:08;6.63;;;5.03;;
10410;SDS011;5251;52.112;8.606;2023-01-28T12:08:56;5.40;;;4.55;;
10410;SDS011;5251;52.112;8.606;2023-01-28T12:11:53;5.50;;;5.07;;
10410;SDS011;5251;52.112;8.606;2023-01-28T12:23:09;5.30;;;4.80;;
10410;SDS011;5251;52.112;8.606;2023-01-28T12:31:27;5.28;;;4.78;;
10410;SDS011;5251;52.112;8.606;2023-01-28T12:42:12;5.10;;;4.70;;
10410;SDS011;5251;52.112;8.606;2023-01-28T12:45:22;5.47;;;4.88;;
10410;SDS011;5251;52.112;8.606;2023-01-28T12:47:53;5.53;;;4.90;;
10410;SDS011;5251;52.112;8.606;2023-01-28T12:50:26;5.45;;;4.95;;
10410;SDS011;5251;52.112;8.606;2023-01-28T12:52:56;9.95;;;7.85;;
10410;SDS011;5251;52.112;8.606;2023-01-28T12:55:40;9.77;;;7.05;;
10410;SDS011;5251;52.112;8.606;2023-01-28T12:58:11;6.45;;;5.35;;
10410;SDS011;5251;52.112;8.606;2023-01-28T13:00:45;16.40;;;7.25;;
10410;SDS011;5251;52.112;8.606;2023-01-28T13:05:48;5.45;;;4.95;;
10410;SDS011;5251;52.112;8.606;2023-01-28T13:10:48;5.40;;;4.90;;
10410;SDS011;5251;52.112;8.606;2023-01-28T13:13:16;6.53;;;5.65;;
10410;SDS011;5251;52.112;8.606;2023-01-28T13:15:46;6.75;;;5.35;;
10410;SDS011;5251;52.112;8.606;2023-01-28T13:20:59;8.18;;;6.63;;
10410;SDS011;5251;52.112;8.606;2023-01-28T13:23:43;5.93;;;5.32;;
10410;SDS011;5251;52.112;8.606;2023-01-28T13:31:18;6.20;;;5.03;;
10410;SDS011;5251;52.112;8.606;2023-01-28T13:33:47;6.40;;;5.80;;
10410;SDS011;5251;52.112;8.606;2023-01-28T13:36:32;5.50;;;5.00;;
10410;SDS011;5251;52.112;8.606;2023-01-28T13:39:20;6.70;;;5.50;;
10410;SDS011;5251;52.112;8.606;2023-01-28T13:46:50;6.07;;;5.47;;
10410;SDS011;5251;52.112;8.606;2023-01-28T13:49:18;6.82;;;5.38;;
10410;SDS011;5251;52.112;8.606;2023-01-28T13:51:57;6.13;;;5.20;;
10410;SDS011;5251;52.112;8.606;2023-01-28T13:54:44;5.57;;;5.13;;
10410;SDS011;5251;52.112;8.606;2023-01-28T14:00:10;6.10;;;5.18;;
10410;SDS011;5251;52.112;8.606;2023-01-28T14:17:23;8.20;;;5.50;;
10410;SDS011;5251;52.112;8.606;2023-01-28T14:20:32;6.03;;;5.43;;
10410;SDS011;5251;52.112;8.606;2023-01-28T14:23:17;6.13;;;5.55;;
10410;SDS011;5251;52.112;8.606;2023-01-28T14:28:19;6.32;;;5.72;;
10410;SDS011;5251;52.112;8.606;2023-01-28T14:31:11;6.13;;;5.30;;
10410;SDS011;5251;52.112;8.606;2023-01-28T14:33:42;7.05;;;6.35;;
10410;SDS011;5251;52.112;8.606;2023-01-28T14:36:11;6.50;;;5.82;;
10410;SDS011;5251;52.112;8.606;2023-01-28T14:38:38;7.38;;;5.80;;
10410;SDS011;5251;52.112;8.606;2023-01-28T14:41:06;7.22;;;5.85;;
10410;SDS011;5251;52.112;8.606;2023-01-28T14:43:33;5.60;;;5.10;;
10410;SDS011;5251;52.112;8.606;2023-01-28T14:46:18;8.77;;;5.78;;
10410;SDS011;5251;52.112;8.606;2023-01-28T14:54:53;7.05;;;6.25;;
10410;SDS011;5251;52.112;8.606;2023-01-28T14:57:44;6.75;;;5.35;;
10410;SDS011;5251;52.112;8.606;2023-01-28T15:00:36;6.43;;;5.47;;
10410;SDS011;5251;52.112;8.606;2023-01-28T15:03:07;6.47;;;5.80;;
10410;SDS011;5251;52.112;8.606;2023-01-28T15:05:41;7.22;;;5.30;;
10410;SDS011;5251;52.112;8.606;2023-01-28T15:08:06;6.03;;;5.35;;
10410;SDS011;5251;52.112;8.606;2023-01-28T15:10:34;6.43;;;5.80;;
10410;SDS011;5251;52.112;8.606;2023-01-28T15:15:39;6.18;;;5.43;;
10410;SDS011;5251;52.112;8.606;2023-01-28T15:18:18;7.32;;;5.53;;
10410;SDS011;5251;52.112;8.606;2023-01-28T15:20:50;7.43;;;5.72;;
10410;SDS011;5251;52.112;8.606;2023-01-28T15:23:20;6.30;;;5.40;;
10410;SDS011;5251;52.112;8.606;2023-01-28T15:25:50;6.63;;;5.82;;
10410;SDS011;5251;52.112;8.606;2023-01-28T15:28:20;6.60;;;5.97;;
10410;SDS011;5251;52.112;8.606;2023-01-28T15:30:54;10.93;;;5.88;;
10410;SDS011;5251;52.112;8.606;2023-01-28T15:33:20;6.93;;;5.55;;
10410;SDS011;5251;52.112;8.606;2023-01-28T15:35:47;5.80;;;5.20;;
10410;SDS011;5251;52.112;8.606;2023-01-28T15:38:15;6.05;;;5.40;;
10410;SDS011;5251;52.112;8.606;2023-01-28T15:40:45;7.53;;;6.60;;
10410;SDS011;5251;52.112;8.606;2023-01-28T15:43:20;6.25;;;5.45;;
10410;SDS011;5251;52.112;8.606;2023-01-28T15:45:50;7.10;;;5.68;;
10410;SDS011;5251;52.112;8.606;2023-01-28T15:48:19;6.85;;;5.90;;
10410;SDS011;5251;52.112;8.606;2023-01-28T15:50:46;6.95;;;5.65;;
10410;SDS011;5251;52.112;8.606;2023-01-28T15:53:12;9.05;;;6.22;;
10410;SDS011;5251;52.112;8.606;2023-01-28T15:55:39;7.38;;;5.85;;
10410;SDS011;5251;52.112;8.606;2023-01-28T15:58:20;7.47;;;5.63;;
10410;SDS011;5251;52.112;8.606;2023-01-28T16:00:49;6.68;;;5.82;;
10410;SDS011;5251;52.112;8.606;2023-01-28T16:03:25;6.55;;;5.72;;
10410;SDS011;5251;52.112;8.606;2023-01-28T16:06:01;7.07;;;6.15;;
10410;SDS011;5251;52.112;8.606;2023-01-28T16:11:20;6.88;;;6.10;;
10410;SDS011;5251;52.112;8.606;2023-01-28T16:13:54;8.32;;;6.50;;
10410;SDS011;5251;52.112;8.606;2023-01-28T16:16:39;6.57;;;5.85;;
10410;SDS011;5251;52.112;8.606;2023-01-28T16:19:05;7.95;;;5.63;;
10410;SDS011;5251;52.112;8.606;2023-01-28T16:21:41;8.00;;;6.03;;
10410;SDS011;5251;52.112;8.606;2023-01-28T16:26:55;6.80;;;5.72;;
10410;SDS011;5251;52.112;8.606;2023-01-28T16:29:26;6.20;;;5.35;;
10410;SDS011;5251;52.112;8.606;2023-01-28T16:31:53;7.45;;;5.93;;
10410;SDS011;5251;52.112;8.606;2023-01-28T16:34:19;7.22;;;6.15;;
10410;SDS011;5251;52.112;8.606;2023-01-28T16:36:44;8.40;;;6.93;;
10410;SDS011;5251;52.112;8.606;2023-01-28T16:39:10;7.45;;;6.57;;
10410;SDS011;5251;52.112;8.606;2023-01-28T16:41:43;7.68;;;6.25;;
10410;SDS011;5251;52.112;8.606;2023-01-28T16:44:13;7.93;;;6.50;;
10410;SDS011;5251;52.112;8.606;2023-01-28T16:46:40;7.32;;;6.32;;
10410;SDS011;5251;52.112;8.606;2023-01-28T16:49:07;7.18;;;6.22;;
10410;SDS011;5251;52.112;8.606;2023-01-28T16:51:33;8.02;;;6.10;;
10410;SDS011;5251;52.112;8.606;2023-01-28T16:54:00;6.22;;;5.60;;
10410;SDS011;5251;52.112;8.606;2023-01-28T16:56:28;6.45;;;5.70;;
10410;SDS011;5251;52.112;8.606;2023-01-28T16:58:54;8.20;;;6.55;;
10410;SDS011;5251;52.112;8.606;2023-01-28T17:01:20;7.95;;;5.95;;
10410;SDS011;5251;52.112;8.606;2023-01-28T17:03:46;6.93;;;5.88;;
10410;SDS011;5251;52.112;8.606;2023-01-28T17:06:18;7.75;;;5.78;;
10410;SDS011;5251;52.112;8.606;2023-01-28T17:08:44;7.35;;;6.15;;
10410;SDS011;5251;52.112;8.606;2023-01-28T17:11:10;7.40;;;6.25;;
10410;SDS011;5251;52.112;8.606;2023-01-28T17:13:37;8.40;;;6.35;;
10410;SDS011;5251;52.112;8.606;2023-01-28T17:16:03;9.88;;;6.70;;
10410;SDS011;5251;52.112;8.606;2023-01-28T17:18:29;7.80;;;6.53;;